createdAt,value
2022-12-22T08:51:47.196Z,12.57
2022-12-22T08:54:15.441Z,12.56
2022-12-22T08:56:44.562Z,12.69
2022-12-22T08:59:13.481Z,12.92
2022-12-22T09:01:47.869Z,12.89
2022-12-22T09:04:21.315Z,12.91
2022-12-22T09:06:53.381Z,12.99
2022-12-22T09:09:22.526Z,13.02
2022-12-22T09:11:50.780Z,13.10
2022-12-22T09:14:18.457Z,13.18
2022-12-22T09:16:46.066Z,13.34
2022-12-22T09:19:13.652Z,13.50
2022-12-22T09:21:41.024Z,13.74
2022-12-22T09:24:08.862Z,13.80
2022-12-22T09:26:36.676Z,13.88
2022-12-22T09:29:05.340Z,14.04
2022-12-22T09:31:34.196Z,14.15
2022-12-22T09:34:01.810Z,14.22
2022-12-22T09:36:31.994Z,14.19
2022-12-22T09:39:04.542Z,14.33
2022-12-22T09:41:56.150Z,14.36
2022-12-22T09:44:38.849Z,14.44
2022-12-22T09:47:28.651Z,14.50
2022-12-22T09:49:58.014Z,14.47
2022-12-22T09:52:34.360Z,14.50
2022-12-22T09:55:12.311Z,14.69
2022-12-22T09:57:39.981Z,14.57
2022-12-22T10:00:28.416Z,14.33
2022-12-22T10:03:20.409Z,14.56
2022-12-22T10:06:10.399Z,14.21
2022-12-22T10:08:40.802Z,14.08
2022-12-22T10:11:18.848Z,13.99
2022-12-22T10:13:46.676Z,13.77
2022-12-22T10:16:28.843Z,13.76
2022-12-22T10:19:11.894Z,13.55
2022-12-22T10:21:46.347Z,13.58
2022-12-22T10:24:28.240Z,13.44
2022-12-22T10:27:00.752Z,13.52
2022-12-22T10:29:29.530Z,13.53
2022-12-22T10:32:11.715Z,13.59
2022-12-22T10:35:05.856Z,13.64
2022-12-22T10:37:38.709Z,13.80
2022-12-22T10:40:23.915Z,13.79
2022-12-22T10:42:55.968Z,13.89
2022-12-22T10:45:27.816Z,13.90
2022-12-22T10:47:57.444Z,13.85
2022-12-22T10:50:24.894Z,13.91
2022-12-22T10:52:58.235Z,13.94
2022-12-22T10:55:29.969Z,14.04
2022-12-22T10:58:11.806Z,14.06
2022-12-22T11:00:42.667Z,14.10
2022-12-22T11:03:20.632Z,14.09
2022-12-22T11:05:51.838Z,14.09
2022-12-22T11:08:21.047Z,14.06
2022-12-22T11:11:46.549Z,14.08
2022-12-22T11:14:53.354Z,14.15
2022-12-22T11:18:19.956Z,14.20
2022-12-22T11:21:10.444Z,14.19
2022-12-22T11:24:21.696Z,14.13
2022-12-22T11:27:29.146Z,14.13
2022-12-22T11:30:27.379Z,14.03
2022-12-22T11:33:43.017Z,14.06
2022-12-22T11:36:35.898Z,13.93
2022-12-22T11:39:22.870Z,13.74
2022-12-22T11:42:58.101Z,13.71
2022-12-22T11:46:21.316Z,13.80
2022-12-22T11:49:48.914Z,13.80
2022-12-22T11:52:53.484Z,13.96
2022-12-22T11:55:44.756Z,14.04
2022-12-22T11:58:58.117Z,14.12
2022-12-22T12:02:36.419Z,14.19
2022-12-22T12:05:51.928Z,14.25
2022-12-22T12:08:50.279Z,14.25
2022-12-22T12:11:41.503Z,14.21
2022-12-22T12:14:54.826Z,14.26
2022-12-22T12:19:03.561Z,14.32
2022-12-22T12:21:50.117Z,14.34
2022-12-22T12:25:40.023Z,14.42
2022-12-22T12:29:04.624Z,14.43
2022-12-22T12:31:53.755Z,14.49
2022-12-22T12:34:23.165Z,14.49
2022-12-22T12:37:25.934Z,14.42
2022-12-22T12:40:31.999Z,14.59
2022-12-22T12:43:00.450Z,14.66
2022-12-22T12:45:49.114Z,14.84
2022-12-22T12:48:22.771Z,14.80
2022-12-22T12:50:57.843Z,14.75
2022-12-22T12:53:30.442Z,14.77
2022-12-22T12:56:07.177Z,14.78
2022-12-22T12:58:37.783Z,14.89
2022-12-22T13:01:11.739Z,14.81
2022-12-22T13:06:54.136Z,14.81
2022-12-22T13:12:48.497Z,14.80
2022-12-22T13:15:42.602Z,14.72
2022-12-22T13:18:49.992Z,14.78
2022-12-22T13:21:53.459Z,14.65
2022-12-22T13:24:30.049Z,14.56
2022-12-22T13:27:06.904Z,14.48
2022-12-22T13:29:47.320Z,14.40
2022-12-22T13:32:35.771Z,14.40
2022-12-22T13:35:46.576Z,14.44
2022-12-22T13:38:37.261Z,14.60
2022-12-22T13:41:27.270Z,14.42
2022-12-22T13:44:04.547Z,14.56
2022-12-22T13:46:36.219Z,14.55
2022-12-22T13:49:07.653Z,14.64
2022-12-22T13:51:38.501Z,14.62
2022-12-22T13:54:36.323Z,14.62
2022-12-22T13:57:13.193Z,14.58
2022-12-22T13:59:45.606Z,14.66
2022-12-22T14:02:16.132Z,14.65
2022-12-22T14:05:09.359Z,14.62
2022-12-22T14:07:37.091Z,14.65
2022-12-22T14:10:05.985Z,14.60
2022-12-22T14:12:46.951Z,14.67
2022-12-22T14:15:20.642Z,14.63
2022-12-22T14:17:52.808Z,14.56
2022-12-22T14:20:37.136Z,14.60
2022-12-22T14:23:24.693Z,14.63
2022-12-22T14:25:53.930Z,14.56
2022-12-22T14:28:29.616Z,14.55
2022-12-22T14:31:03.980Z,14.57
2022-12-22T14:33:35.023Z,14.57
2022-12-22T14:36:24.859Z,14.57
2022-12-22T14:39:03.771Z,14.57
2022-12-22T14:42:11.345Z,14.64
2022-12-22T14:44:48.950Z,14.67
2022-12-22T14:47:25.407Z,14.65
2022-12-22T14:50:26.082Z,14.63
2022-12-22T14:53:01.624Z,14.59
2022-12-22T14:55:41.141Z,14.58
2022-12-22T14:58:22.268Z,14.52
2022-12-22T15:01:30.070Z,14.64
2022-12-22T15:04:20.661Z,14.59
2022-12-22T15:06:50.209Z,14.60
2022-12-22T15:09:28.349Z,14.66
2022-12-22T15:12:13.463Z,14.63
2022-12-22T15:14:42.060Z,14.62
2022-12-22T15:17:25.542Z,14.64
2022-12-22T15:19:58.816Z,14.70
2022-12-22T15:22:26.185Z,14.51
2022-12-22T15:24:53.479Z,14.54
2022-12-22T15:27:20.871Z,14.47
2022-12-22T15:29:48.252Z,14.48
2022-12-22T15:32:15.744Z,14.45
2022-12-22T15:34:43.549Z,14.49
2022-12-22T15:37:13.948Z,14.41
2022-12-22T15:39:41.366Z,14.41
2022-12-22T15:42:08.699Z,14.40
2022-12-22T15:44:38.995Z,14.44
2022-12-22T15:47:09.891Z,14.45
2022-12-22T15:49:37.223Z,14.47
2022-12-22T15:52:06.272Z,14.39
2022-12-22T15:54:35.486Z,14.52
2022-12-22T15:57:03.025Z,14.49
2022-12-22T15:59:31.013Z,14.45
2022-12-22T16:02:01.776Z,14.42
2022-12-22T16:04:30.208Z,14.40
2022-12-22T16:06:59.634Z,14.45
2022-12-22T16:09:42.995Z,14.41
2022-12-22T16:12:17.167Z,14.36
2022-12-22T16:14:51.701Z,14.30
2022-12-22T16:17:27.609Z,14.19
2022-12-22T16:19:55.241Z,14.12
2022-12-22T16:22:36.212Z,13.99
2022-12-22T16:25:16.384Z,14.07
2022-12-22T16:27:43.995Z,13.98
2022-12-22T16:30:24.802Z,13.97
2022-12-22T16:32:52.688Z,13.93
2022-12-22T16:35:25.644Z,13.94
2022-12-22T16:37:58.904Z,13.92
2022-12-22T16:40:28.173Z,13.89
2022-12-22T16:45:59.318Z,13.86
2022-12-22T16:48:56.939Z,13.77
2022-12-22T16:51:37.253Z,13.63
2022-12-22T16:54:05.115Z,13.59
2022-12-22T16:56:32.842Z,13.59
2022-12-22T16:59:02.919Z,13.60
2022-12-22T17:01:56.904Z,13.60
2022-12-22T17:04:32.744Z,13.53
2022-12-22T17:07:02.080Z,13.54
2022-12-22T17:09:56.427Z,13.46
2022-12-22T17:12:29.931Z,13.66
2022-12-22T17:14:59.362Z,13.58
2022-12-22T17:17:32.913Z,13.78
2022-12-22T17:20:02.989Z,13.80
2022-12-22T17:22:33.771Z,13.74
2022-12-22T17:25:05.623Z,13.85
2022-12-22T17:27:34.925Z,13.98
2022-12-22T17:30:04.442Z,13.99
2022-12-22T17:32:31.904Z,13.90
2022-12-22T17:34:59.235Z,14.04
2022-12-22T17:37:26.626Z,14.01
2022-12-22T17:40:01.399Z,14.05
2022-12-22T17:42:31.333Z,14.00
2022-12-22T17:44:58.916Z,14.07
2022-12-22T17:47:32.459Z,14.08
2022-12-22T17:50:02.163Z,13.97
2022-12-22T17:52:34.463Z,14.09
2022-12-22T17:55:01.905Z,14.07
2022-12-22T17:57:35.628Z,14.10
2022-12-22T18:00:04.584Z,14.07
2022-12-22T18:02:32.350Z,14.04
2022-12-22T18:05:00.004Z,13.95
2022-12-22T18:07:27.918Z,13.92
2022-12-22T18:10:00.020Z,13.96
2022-12-22T18:12:27.458Z,14.00
2022-12-22T18:14:54.834Z,14.05
2022-12-22T18:17:35.430Z,13.98
2022-12-22T18:20:03.429Z,13.95
2022-12-22T18:22:30.948Z,13.86
2022-12-22T18:24:58.411Z,13.82
2022-12-22T18:27:25.739Z,13.92
2022-12-22T18:29:53.147Z,13.93
2022-12-22T18:32:27.210Z,13.89
2022-12-22T18:34:55.447Z,13.90
2022-12-22T18:37:22.831Z,13.91
2022-12-22T18:39:50.220Z,13.88
2022-12-22T18:42:23.955Z,13.86
2022-12-22T18:44:57.197Z,13.77
2022-12-22T18:47:25.883Z,13.77
2022-12-22T18:49:53.271Z,13.78
2022-12-22T18:52:23.577Z,13.70
2022-12-22T18:54:51.087Z,13.78
2022-12-22T18:57:20.068Z,13.51
2022-12-22T18:59:48.822Z,13.52
2022-12-22T19:02:28.875Z,13.34
2022-12-22T19:04:57.287Z,13.20
2022-12-22T19:07:26.326Z,13.25
2022-12-22T19:09:53.762Z,13.32
2022-12-22T19:12:23.157Z,13.20
2022-12-22T19:14:59.395Z,13.10
2022-12-22T19:17:28.846Z,13.19
2022-12-22T19:19:58.264Z,13.15
2022-12-22T19:22:25.663Z,12.96
2022-12-22T19:24:57.356Z,13.19
2022-12-22T19:27:27.909Z,13.12
2022-12-22T19:30:03.579Z,13.24
2022-12-22T19:32:46.120Z,13.34
2022-12-22T19:35:21.946Z,13.31
2022-12-22T19:37:52.803Z,13.26
2022-12-22T19:40:28.186Z,13.25
2022-12-22T19:42:57.954Z,13.32
2022-12-22T19:45:36.840Z,13.22
2022-12-22T19:48:15.067Z,13.33
2022-12-22T19:50:42.391Z,13.31
2022-12-22T19:53:11.644Z,13.22
2022-12-22T19:56:02.936Z,13.32
2022-12-22T19:58:39.875Z,13.09
2022-12-22T20:01:11.596Z,13.16
2022-12-22T20:03:39.041Z,13.19
2022-12-22T20:06:08.862Z,13.16
2022-12-22T20:08:36.662Z,13.25
2022-12-22T20:11:06.157Z,13.29
2022-12-22T20:13:33.901Z,13.16
2022-12-22T20:16:01.819Z,13.19
2022-12-22T20:18:30.402Z,13.03
2022-12-22T20:21:13.381Z,13.19
2022-12-22T20:23:41.505Z,13.09
2022-12-22T20:26:19.142Z,13.16
2022-12-22T20:28:47.043Z,13.24
2022-12-22T20:31:18.366Z,13.20
2022-12-22T20:33:46.120Z,13.27
2022-12-22T20:36:31.723Z,13.31
2022-12-22T20:39:02.048Z,13.36
2022-12-22T20:41:29.514Z,13.32
2022-12-22T20:43:56.879Z,13.34
2022-12-22T20:46:29.932Z,13.33
2022-12-22T20:49:04.552Z,13.29
2022-12-22T20:51:34.081Z,13.32
2022-12-22T20:54:01.719Z,13.36
2022-12-22T20:56:35.348Z,13.31
2022-12-22T20:59:22.853Z,13.26
2022-12-22T21:01:52.801Z,13.43
2022-12-22T21:04:21.558Z,13.46
2022-12-22T21:06:57.168Z,13.51
2022-12-22T21:09:25.546Z,13.52
2022-12-22T21:11:52.964Z,13.55
2022-12-22T21:14:20.303Z,13.58
2022-12-22T21:16:48.587Z,13.52
2022-12-22T21:19:21.068Z,13.56
2022-12-22T21:21:48.499Z,13.48
2022-12-22T21:24:15.956Z,13.16
2022-12-22T21:26:52.267Z,13.11
2022-12-22T21:29:26.181Z,13.22
2022-12-22T21:31:53.860Z,13.39
2022-12-22T21:34:21.734Z,13.48
2022-12-22T21:36:59.523Z,13.53
2022-12-22T21:39:44.552Z,13.39
2022-12-22T21:42:19.959Z,13.34
2022-12-22T21:44:47.731Z,13.41
2022-12-22T21:47:21.086Z,13.36
2022-12-22T21:49:48.439Z,13.34
2022-12-22T21:52:15.752Z,13.48
2022-12-22T21:54:43.255Z,13.48
2022-12-22T21:57:16.339Z,13.60
2022-12-22T21:59:43.833Z,13.41
2022-12-22T22:02:18.870Z,13.43
2022-12-22T22:04:53.692Z,13.36
2022-12-22T22:07:21.783Z,13.45
2022-12-22T22:09:49.207Z,13.45
2022-12-22T22:12:36.870Z,13.36
2022-12-22T22:15:07.206Z,13.55
2022-12-22T22:17:34.632Z,13.48
2022-12-22T22:20:02.139Z,13.49
2022-12-22T22:22:30.052Z,13.39
2022-12-22T22:24:57.495Z,13.43
2022-12-22T22:27:24.907Z,13.54
2022-12-22T22:29:52.293Z,13.52
2022-12-22T22:32:19.724Z,13.58
2022-12-22T22:34:47.097Z,13.45
2022-12-22T22:37:14.433Z,13.52
2022-12-22T22:39:41.778Z,13.48
2022-12-22T22:42:09.224Z,13.44
2022-12-22T22:44:36.598Z,13.47
2022-12-22T22:47:04.136Z,13.45
2022-12-22T22:49:31.494Z,13.34
2022-12-22T22:51:58.881Z,13.34
2022-12-22T22:54:26.662Z,13.09
2022-12-22T22:56:54.641Z,13.09
2022-12-22T22:59:21.970Z,13.04
2022-12-22T23:01:49.455Z,13.08
2022-12-22T23:04:17.066Z,13.36
2022-12-22T23:06:44.467Z,13.54
2022-12-22T23:09:11.827Z,13.89
2022-12-22T23:11:39.663Z,13.92
2022-12-22T23:14:06.980Z,14.12
2022-12-22T23:16:38.420Z,14.30
2022-12-22T23:19:06.504Z,14.37
2022-12-22T23:21:34.188Z,14.38
2022-12-22T23:24:01.695Z,14.45
2022-12-22T23:26:29.171Z,14.53
2022-12-22T23:29:01.237Z,14.58
2022-12-22T23:31:32.845Z,14.58
2022-12-22T23:34:00.657Z,14.69
2022-12-22T23:36:28.263Z,14.65
2022-12-22T23:38:55.704Z,14.65
2022-12-22T23:41:23.016Z,14.64
2022-12-22T23:43:51.058Z,14.68
2022-12-22T23:46:18.782Z,14.69
2022-12-22T23:48:57.264Z,14.68
2022-12-22T23:51:28.495Z,14.68
2022-12-22T23:53:59.269Z,14.69
2022-12-22T23:56:27.879Z,14.72
2022-12-22T23:58:55.422Z,14.71
